Flight Track Log - Related Links

Times and Time Zones

All times are in EST time to prevent confusion due to time zone crossing. See the FIN666 flight status page for this flight to view local times or setup timezone preferences in your user account.

Time Position Orientation Groundspeed Altitude Reporting Facility
EST Latitude Longitude Course Direction KTS MPH feet Rate Location/Type
Sun 07:23:00 AM 55.9081 13.2574 49° Northeast  Level Estimated
Sun 07:24:00 AM 55.9802 13.4092 50° Northeast  Level Estimated
Sun 07:25:00 AM 56.0521 13.5615 50° Northeast  Level Estimated
Sun 07:26:00 AM 56.1238 13.7144 50° Northeast  Level Estimated
Sun 07:27:00 AM 56.1953 13.8679 50° Northeast  Level Estimated
Sun 07:28:00 AM 56.2667 14.0219 50° Northeast  Level Estimated
Sun 07:29:00 AM 56.3378 14.1766 50° Northeast  Level Estimated
Sun 07:30:00 AM 56.4087 14.3318 50° Northeast  Level Estimated
Sun 07:31:00 AM 56.4795 14.4875 51° Northeast  Level Estimated
Sun 07:32:00 AM 56.5501 14.6439 51° Northeast  Level Estimated
Sun 07:33:00 AM 56.6204 14.8008 51° Northeast  Level Estimated
Sun 07:34:00 AM 56.6906 14.9584 51° Northeast  Level Estimated
Sun 07:35:00 AM 56.7605 15.1165 51° Northeast  Level Estimated
Sun 07:36:00 AM 56.8303 15.2752 51° Northeast  Level Estimated
Sun 07:37:00 AM 56.8999 15.4345 51° Northeast  Level Estimated
Sun 07:38:00 AM 56.9692 15.5944 51° Northeast  Level Estimated
Sun 07:39:00 AM 57.0384 15.7549 52° Northeast  Level Estimated
Sun 07:40:00 AM 57.1073 15.9159 52° Northeast  Level Estimated
Sun 07:41:00 AM 57.1760 16.0776 52° Northeast  Level Estimated
Sun 07:42:00 AM 57.2446 16.2399 52° Northeast  Level Estimated
Sun 07:43:00 AM 57.3129 16.4028 52° Northeast  Level Estimated
Sun 07:44:00 AM 57.3820 16.5686 52° Northeast  Level Estimated
Sun 07:45:00 AM 57.4508 16.7350 52° Northeast  Level Estimated
Sun 07:46:00 AM 57.5195 16.9020 53° Northeast  Level Estimated
Sun 07:47:00 AM 57.5879 17.0697 53° Northeast  Level Estimated
Sun 07:48:00 AM 57.6560 17.2380 53° Northeast  Level Estimated
Sun 07:49:00 AM 57.7240 17.4070 53° Northeast  Level Estimated
Sun 07:50:00 AM 57.7917 17.5765 53° Northeast  Level Estimated
Sun 07:51:00 AM 57.8592 17.7468 53° Northeast  Level Estimated
Sun 07:52:00 AM 57.9265 17.9176 53° Northeast  Level Estimated
Sun 07:53:00 AM 57.9936 18.0891 54° Northeast  Level Estimated
Sun 07:54:00 AM 58.0604 18.2612 54° Northeast  Level Estimated
Sun 07:55:00 AM 58.1269 18.4340 54° Northeast  Level Estimated
Sun 07:56:00 AM 58.1933 18.6074 54° Northeast  Level Estimated
Sun 07:57:00 AM 58.2594 18.7815 54° Northeast  Level Estimated
Sun 07:58:00 AM 58.3253 18.9562 54° Northeast  Level Estimated
Sun 07:59:00 AM 58.3909 19.1316 54° Northeast  Level Estimated
Sun 08:00:00 AM 58.4563 19.3076 55° Northeast  Level Estimated
Sun 08:01:00 AM 58.5215 19.4843 55° Northeast  Level Estimated
Sun 08:02:00 AM 58.5864 19.6616 55° Northeast  Level Estimated
Sun 08:03:00 AM 58.6510 19.8396 55° Northeast  Level Estimated
Sun 08:04:00 AM 58.7154 20.0183 55° Northeast  Level Estimated
Sun 08:05:00 AM 58.7796 20.1976 55° Northeast  Level Estimated
Sun 08:06:00 AM 58.8435 20.3776 55° Northeast  Level Estimated
Sun 08:07:00 AM 58.9072 20.5582 56° Northeast  Level Estimated
Sun 08:08:00 AM 58.9706 20.7395 56° Northeast  Level Estimated
Sun 08:09:00 AM 59.0338 20.9215 56° Northeast  Level Estimated
Sun 08:10:00 AM 59.0967 21.1041 56° Northeast  Level Estimated
Sun 08:11:00 AM 59.1593 21.2874 56° Northeast  Level Estimated
Sun 08:12:00 AM 59.2209 21.4688 56° Northeast  Level Estimated
Sun 08:13:00 AM 59.2821 21.6509 57° Northeast  Level Estimated
Sun 08:14:00 AM 59.3431 21.8337 57° Northeast  Level Estimated
Sun 08:15:00 AM 59.4039 22.0170 57° Northeast  Level Estimated
Sun 08:16:00 AM 59.4644 22.2011 57° Northeast  Level Estimated
Sun 08:17:00 AM 59.5246 22.3858 57° Northeast  Level Estimated
Sun 08:18:00 AM 59.5846 22.5712 57° Northeast  Level Estimated
Sun 08:19:00 AM 59.6443 22.7572 58° Northeast  Level Estimated
Sun 08:20:00 AM 59.7038 22.9439 58° Northeast  Level Estimated
Sun 08:21:00 AM 59.7630 23.1312 58° Northeast  Level Estimated
Sun 08:22:00 AM 59.8219 23.3193 58° Northeast  Level Estimated
Sun 08:23:00 AM 59.8806 23.5079 58° Northeast  Level Estimated
Sun 08:24:00 AM 59.9389 23.6973 58° Northeast  Level Estimated
Sun 08:25:00 AM 59.9970 23.8873 58° Northeast  Level Estimated
Sun 08:26:00 AM 60.0549 24.0780 59° Northeast  Level Estimated
Sun 08:27:00 AM 60.1124 24.2693 59° Northeast  Level Estimated
Sun 08:28:00 AM 60.1697 24.4613 59° Northeast  Level Estimated
Sun 08:29:00 AM 60.2267 24.6540 59° Northeast  Level Estimated
Sun 08:30:00 AM 60.2834 24.8474 59° Northeast  Level Estimated
Sun 08:31:00 AM 60.3172 24.9633 59° Northeast  Level Estimated
Sun 08:32:00 AM 60.3172 24.9633 37° Northeast  Level Estimated
Sun 08:33:00 AM 60.3172 24.9633 37° Northeast  Level Estimated
Sun 08:34:00 AM 60.3172 24.9633 37° Northeast  Level Estimated
Sun 08:35:00 AM 60.3172 24.9633 37° Northeast  Level Estimated
Sun 08:36:00 AM 60.3172 24.9633 37° Northeast  Level Estimated
Sun 08:37:00 AM 60.3172 24.9633 37° Northeast  Level Estimated
Sun 08:38:00 AM 60.3172 24.9633 37° Northeast  Level Estimated
Sun 08:39:00 AM 60.3172 24.9633 37° Northeast  Level Estimated
Sun 08:40:00 AM 60.3172 24.9633 37° Northeast  Level Estimated
Sun 08:41:00 AM 60.3172 24.9633 37° Northeast  Level Estimated
Sun 08:42:00 AM 60.3172 24.9633 37° Northeast  Level Estimated

Login

Don't have an account? Register now (free) for customized features, flight alerts, and more!